Webcam

2016/05/31 21:20 EBBR 312120Z 00000KT 9999 FEW035 16/14 Q1014 NOSIG

Webcam image

--- Refresh now ---